Time;durP1;ratioP1;P1;durP2;ratioP2;P2;SDS_P1;SDS_P2;PMS_P1;PMS_P2;Temp;Humidity;BMP_temperature;BMP_pressure;BME280_temperature;BME280_humidity;BME280_pressure;Samples;Min_cycle;Max_cycle;Signal;HPM_P1;HPM_P2
2024/03/18 00:02:17;;;;;;;7.82;5.25;;;11.70;99.90;;;;;;4996202;28;20034;-78
2024/03/18 00:04:43;;;;;;;9.10;5.78;;;11.70;99.90;;;;;;4996142;28;20027;-78
2024/03/18 00:07:09;;;;;;;10.30;6.60;;;11.70;99.90;;;;;;4994740;28;20118;-79
2024/03/18 00:09:36;;;;;;;9.98;6.50;;;11.70;99.90;;;;;;4996241;28;20069;-78
2024/03/18 00:12:02;;;;;;;9.82;5.95;;;11.70;99.90;;;;;;4996285;28;20030;-78
2024/03/18 00:14:28;;;;;;;9.50;5.95;;;11.80;99.90;;;;;;4996375;28;20027;-78
2024/03/18 00:16:54;;;;;;;12.18;5.70;;;11.70;99.90;;;;;;4995784;28;20037;-78
2024/03/18 00:19:21;;;;;;;8.45;4.97;;;11.70;99.90;;;;;;4995599;28;20030;-78
2024/03/18 00:21:47;;;;;;;11.82;6.22;;;11.80;99.90;;;;;;4995839;28;20474;-79
2024/03/18 00:24:13;;;;;;;10.10;5.78;;;11.70;99.90;;;;;;4995603;28;20065;-79
2024/03/18 00:26:38;;;;;;;8.65;5.15;;;11.70;99.90;;;;;;4995513;28;20030;-78
2024/03/18 00:29:04;;;;;;;9.20;4.88;;;11.70;99.90;;;;;;4995760;28;20105;-79
2024/03/18 00:31:30;;;;;;;11.13;5.65;;;11.80;99.90;;;;;;4995268;28;20026;-79
2024/03/18 00:33:56;;;;;;;9.50;5.40;;;11.70;99.90;;;;;;4995593;28;20397;-79
2024/03/18 00:36:21;;;;;;;8.55;4.95;;;11.70;99.90;;;;;;4995533;28;20018;-79
2024/03/18 00:38:47;;;;;;;9.55;4.80;;;11.70;99.90;;;;;;4995193;28;20037;-79
2024/03/18 00:44:00;;;;;;;9.40;5.57;;;11.70;99.90;;;;;;4995887;28;20132;-79
2024/03/18 00:46:25;;;;;;;8.90;5.40;;;11.80;99.90;;;;;;4993942;28;20108;-79
2024/03/18 00:48:51;;;;;;;8.80;5.40;;;11.80;99.90;;;;;;4995165;28;20022;-79
2024/03/18 00:51:17;;;;;;;10.30;5.57;;;11.70;99.90;;;;;;5010294;28;20030;-79
2024/03/18 00:53:42;;;;;;;9.20;5.13;;;11.80;99.90;;;;;;5010218;28;20022;-79
2024/03/18 00:56:08;;;;;;;9.10;5.20;;;11.80;99.90;;;;;;4995187;28;20427;-79
2024/03/18 00:58:35;;;;;;;9.63;5.68;;;11.80;99.90;;;;;;4993749;28;20028;-79
2024/03/18 01:01:02;;;;;;;9.50;5.65;;;11.80;99.90;;;;;;4994940;28;20027;-79
2024/03/18 01:03:29;;;;;;;9.63;5.72;;;11.80;99.90;;;;;;5009040;28;20019;-79
2024/03/18 01:05:54;;;;;;;9.35;5.85;;;11.80;99.90;;;;;;4997009;28;20040;-79
2024/03/18 01:08:21;;;;;;;12.48;6.47;;;11.80;99.90;;;;;;5003625;28;20485;-79
2024/03/18 01:10:48;;;;;;;10.02;6.05;;;11.80;99.90;;;;;;4994847;28;20465;-79
2024/03/18 01:13:14;;;;;;;11.93;5.68;;;11.90;99.90;;;;;;4994755;28;20378;-79
2024/03/18 01:15:40;;;;;;;10.40;6.30;;;11.80;99.90;;;;;;4994475;28;20109;-79
2024/03/18 01:18:06;;;;;;;10.70;6.60;;;11.80;99.90;;;;;;4994740;28;20446;-79
2024/03/18 01:20:38;;;;;;;11.35;6.38;;;11.80;99.90;;;;;;5009856;28;20015;-79
2024/03/18 01:23:04;;;;;;;11.00;6.07;;;11.80;99.90;;;;;;4994315;28;20418;-79
2024/03/18 01:25:32;;;;;;;13.27;7.13;;;11.80;99.90;;;;;;4994174;28;20026;-79
2024/03/18 01:27:58;;;;;;;11.38;6.32;;;11.80;99.90;;;;;;4994412;28;20030;-79
2024/03/18 01:30:24;;;;;;;10.45;6.38;;;11.90;99.90;;;;;;4992741;28;20022;-79
2024/03/18 01:32:49;;;;;;;11.95;6.95;;;11.80;99.90;;;;;;5008793;28;20022;-79
2024/03/18 01:35:15;;;;;;;11.82;7.60;;;11.80;99.90;;;;;;4994256;28;20462;-79
2024/03/18 01:37:45;;;;;;;12.20;8.05;;;11.80;99.90;;;;;;4994494;28;20030;-79
2024/03/18 01:40:11;;;;;;;9.00;6.93;;;11.80;99.90;;;;;;4993066;28;20073;-79
2024/03/18 01:42:37;;;;;;;12.43;7.72;;;11.80;99.90;;;;;;4994492;28;20018;-79
2024/03/18 01:45:03;;;;;;;11.75;7.43;;;11.80;99.90;;;;;;4994614;28;20023;-79
2024/03/18 01:47:29;;;;;;;11.65;7.10;;;11.80;99.90;;;;;;5009464;28;20474;-79
2024/03/18 01:49:55;;;;;;;13.23;7.85;;;11.80;99.90;;;;;;4993027;28;20037;-79
2024/03/18 01:52:22;;;;;;;13.90;8.60;;;11.80;99.90;;;;;;4993755;28;20029;-79
2024/03/18 01:54:48;;;;;;;12.40;8.43;;;11.80;99.90;;;;;;5008745;28;20462;-79
2024/03/18 01:57:15;;;;;;;11.98;8.40;;;11.80;99.90;;;;;;4993943;28;20065;-79
2024/03/18 01:59:41;;;;;;;13.93;9.00;;;11.80;99.90;;;;;;4993445;28;20038;-79
2024/03/18 02:02:07;;;;;;;13.27;8.05;;;11.80;99.90;;;;;;4993686;28;20474;-79
2024/03/18 02:04:33;;;;;;;15.52;8.98;;;11.80;99.90;;;;;;5010690;28;20022;-79
2024/03/18 02:06:59;;;;;;;12.80;8.93;;;11.80;99.90;;;;;;5017379;28;20406;-79
2024/03/18 02:09:25;;;;;;;14.52;9.25;;;11.80;99.90;;;;;;4993781;28;20030;-79
2024/03/18 02:11:51;;;;;;;13.43;8.65;;;11.80;99.90;;;;;;4994103;28;20026;-79
2024/03/18 02:14:17;;;;;;;20.08;10.45;;;11.80;99.90;;;;;;4992880;28;20084;-79
2024/03/18 02:16:45;;;;;;;18.15;9.05;;;11.80;99.90;;;;;;4992039;28;20113;-79
2024/03/18 02:19:11;;;;;;;14.80;9.45;;;11.80;99.90;;;;;;5008210;28;20035;-79
2024/03/18 02:21:36;;;;;;;14.80;9.45;;;11.80;99.90;;;;;;5008554;28;20034;-79
2024/03/18 02:24:03;;;;;;;14.18;9.57;;;11.80;99.90;;;;;;4993602;28;20050;-79
2024/03/18 02:26:34;;;;;;;15.90;10.50;;;11.80;99.90;;;;;;4993357;28;20038;-79
2024/03/18 02:29:00;;;;;;;17.92;10.20;;;11.80;99.90;;;;;;4993495;28;20108;-79
2024/03/18 02:31:26;;;;;;;16.67;9.93;;;11.80;99.90;;;;;;4992814;28;20077;-79
2024/03/18 02:33:52;;;;;;;15.02;9.70;;;11.80;99.90;;;;;;4993208;28;20529;-79
2024/03/18 02:36:20;;;;;;;14.73;10.07;;;11.80;99.90;;;;;;5008182;28;20033;-79
2024/03/18 02:38:46;;;;;;;16.20;10.20;;;11.80;99.90;;;;;;4993054;28;20041;-79
2024/03/18 02:41:11;;;;;;;14.32;9.98;;;11.90;99.90;;;;;;4992713;28;20026;-79
2024/03/18 02:43:37;;;;;;;16.17;10.90;;;11.90;99.90;;;;;;5008042;28;20022;-79
2024/03/18 02:46:04;;;;;;;16.98;10.00;;;11.90;99.90;;;;;;4992115;28;20045;-79
2024/03/18 02:48:30;;;;;;;14.45;10.13;;;11.90;99.90;;;;;;4992171;28;20023;-79
2024/03/18 02:50:57;;;;;;;16.23;10.57;;;11.90;99.90;;;;;;4993340;28;20433;-79
2024/03/18 02:53:23;;;;;;;20.08;10.07;;;11.90;99.90;;;;;;4993182;28;20447;-79
2024/03/18 02:55:49;;;;;;;15.27;10.40;;;11.90;99.90;;;;;;4993287;28;20059;-79
2024/03/18 02:58:16;;;;;;;14.85;11.15;;;11.90;99.90;;;;;;4991906;28;20034;-79
2024/03/18 03:00:42;;;;;;;16.27;10.60;;;11.90;99.90;;;;;;4993194;28;20029;-79
2024/03/18 03:03:08;;;;;;;15.70;10.85;;;11.90;99.90;;;;;;4993216;28;20478;-79
2024/03/18 03:05:33;;;;;;;15.88;10.48;;;11.90;99.90;;;;;;4993420;28;20125;-79
2024/03/18 03:07:59;;;;;;;17.73;10.98;;;11.90;99.90;;;;;;4992363;28;20023;-79
2024/03/18 03:10:24;;;;;;;16.58;10.50;;;11.90;99.90;;;;;;4993123;28;20035;-79
2024/03/18 03:12:50;;;;;;;17.55;10.93;;;11.90;99.90;;;;;;4991711;28;20037;-79
2024/03/18 03:15:16;;;;;;;16.17;11.50;;;11.90;99.90;;;;;;4993585;28;20485;-79
2024/03/18 03:17:41;;;;;;;15.68;9.80;;;11.90;99.90;;;;;;5008074;28;20027;-79
2024/03/18 03:20:08;;;;;;;14.85;10.30;;;11.90;99.90;;;;;;4992974;28;20030;-79
2024/03/18 03:22:37;;;;;;;16.95;11.73;;;12.00;99.90;;;;;;4992559;28;20133;-78
2024/03/18 03:25:05;;;;;;;16.98;11.60;;;11.90;99.90;;;;;;5008825;28;20054;-79
2024/03/18 03:27:32;;;;;;;18.60;10.82;;;12.00;99.90;;;;;;4997192;28;20018;-79
2024/03/18 03:29:58;;;;;;;17.05;11.52;;;12.00;99.90;;;;;;4997142;28;20050;-79
2024/03/18 03:32:24;;;;;;;20.65;11.52;;;12.00;99.90;;;;;;4996634;28;20037;-79
2024/03/18 03:34:50;;;;;;;17.45;11.55;;;11.90;99.90;;;;;;5012060;28;20026;-79
2024/03/18 03:37:15;;;;;;;18.67;12.48;;;12.00;99.90;;;;;;4996773;28;20521;-79
2024/03/18 03:39:41;;;;;;;16.17;11.60;;;12.00;99.90;;;;;;4996640;28;20049;-79
2024/03/18 03:42:07;;;;;;;18.63;11.63;;;12.00;99.90;;;;;;4996733;28;20421;-79
2024/03/18 03:44:32;;;;;;;17.25;11.57;;;12.00;99.90;;;;;;4996769;28;20124;-79
2024/03/18 03:46:58;;;;;;;19.40;11.95;;;12.00;99.90;;;;;;5011694;28;20026;-79
2024/03/18 03:49:25;;;;;;;22.63;12.70;;;12.00;99.90;;;;;;4995276;28;20057;-79
2024/03/18 03:51:51;;;;;;;17.55;10.88;;;12.00;99.90;;;;;;4995925;28;20034;-79
2024/03/18 03:54:17;;;;;;;19.55;12.07;;;12.10;99.90;;;;;;4996347;28;20027;-79
2024/03/18 03:56:42;;;;;;;18.70;11.70;;;12.10;99.90;;;;;;4995285;28;20022;-79
2024/03/18 03:59:08;;;;;;;19.55;12.25;;;12.00;99.90;;;;;;4996487;28;20077;-79
2024/03/18 04:01:34;;;;;;;16.52;11.57;;;12.10;99.90;;;;;;4996475;28;20093;-79
2024/03/18 04:03:59;;;;;;;16.83;11.48;;;12.10;99.90;;;;;;4995275;28;20030;-79
2024/03/18 04:06:25;;;;;;;17.73;11.18;;;12.10;99.90;;;;;;4996144;28;20049;-78
2024/03/18 04:08:50;;;;;;;16.17;11.93;;;12.10;99.90;;;;;;4996180;28;20113;-79
2024/03/18 04:11:17;;;;;;;17.52;12.48;;;12.10;99.90;;;;;;4996313;28;20030;-79
2024/03/18 04:13:43;;;;;;;15.50;11.10;;;12.10;99.90;;;;;;4995115;28;20116;-79
2024/03/18 04:16:10;;;;;;;17.98;11.20;;;12.10;99.90;;;;;;4995037;28;20057;-79
2024/03/18 04:18:35;;;;;;;16.13;11.65;;;12.10;99.90;;;;;;4995933;28;20030;-79
2024/03/18 04:21:04;;;;;;;16.15;11.52;;;12.10;99.90;;;;;;4994682;28;20504;-79
2024/03/18 04:23:32;;;;;;;16.98;11.15;;;12.10;99.90;;;;;;4995739;28;20133;-79
2024/03/18 04:26:05;;;;;;;18.45;11.98;;;12.10;99.90;;;;;;5010742;28;20030;-79
2024/03/18 04:28:35;;;;;;;17.92;12.55;;;12.10;99.90;;;;;;4996077;28;20106;-79
2024/03/18 04:31:05;;;;;;;17.58;11.90;;;12.10;99.90;;;;;;4995911;28;20167;-79
2024/03/18 04:33:32;;;;;;;17.77;11.23;;;12.20;99.90;;;;;;4995874;28;20015;-79
2024/03/18 04:35:58;;;;;;;17.67;11.98;;;12.10;99.90;;;;;;4994175;28;20068;-79
2024/03/18 04:38:24;;;;;;;18.20;10.75;;;12.20;99.90;;;;;;4994633;28;20070;-79
2024/03/18 04:40:50;;;;;;;15.07;10.85;;;12.10;99.90;;;;;;4995908;28;20029;-79
2024/03/18 04:43:17;;;;;;;17.92;12.40;;;12.10;99.90;;;;;;5011246;28;20027;-79
2024/03/18 04:45:43;;;;;;;17.33;12.07;;;12.10;99.90;;;;;;4996318;28;20499;-79
2024/03/18 04:48:10;;;;;;;17.10;12.35;;;12.10;99.90;;;;;;4996449;28;20026;-79
2024/03/18 04:50:36;;;;;;;20.25;12.35;;;12.10;99.90;;;;;;5010718;28;20118;-79
2024/03/18 04:53:01;;;;;;;18.90;12.45;;;12.10;99.90;;;;;;4995312;28;20458;-79
2024/03/18 04:55:27;;;;;;;18.65;12.15;;;12.10;99.90;;;;;;4994213;28;20105;-79
2024/03/18 04:57:55;;;;;;;17.63;12.50;;;12.10;99.90;;;;;;4995516;28;20351;-79
2024/03/18 05:00:22;;;;;;;16.63;11.57;;;12.10;99.90;;;;;;4994543;28;20019;-79
2024/03/18 05:02:48;;;;;;;19.83;13.20;;;12.10;99.90;;;;;;4993854;28;20109;-79
2024/03/18 05:05:14;;;;;;;16.90;11.95;;;12.10;99.90;;;;;;4995358;28;20113;-79
2024/03/18 05:07:40;;;;;;;19.13;13.18;;;12.00;99.90;;;;;;4994946;28;20038;-79
2024/03/18 05:10:07;;;;;;;17.42;11.75;;;12.00;99.90;;;;;;4995024;28;20030;-79
2024/03/18 05:12:33;;;;;;;20.55;13.10;;;12.00;99.90;;;;;;4995023;28;20026;-79
2024/03/18 05:14:58;;;;;;;18.13;12.43;;;12.00;99.90;;;;;;4995288;28;20454;-79
2024/03/18 05:17:24;;;;;;;18.00;12.20;;;12.00;99.90;;;;;;4995343;28;20504;-79
2024/03/18 05:19:51;;;;;;;19.58;13.05;;;12.00;99.90;;;;;;4994695;28;20544;-79
2024/03/18 05:22:17;;;;;;;20.67;13.32;;;12.00;99.90;;;;;;4993093;28;20019;-80
2024/03/18 05:24:43;;;;;;;22.70;14.50;;;12.00;99.90;;;;;;4994805;28;20097;-80
2024/03/18 05:27:13;;;;;;;20.98;12.82;;;12.00;99.90;;;;;;4994963;28;20471;-79
2024/03/18 05:29:39;;;;;;;21.80;14.10;;;11.90;99.90;;;;;;4994615;28;20036;-79
2024/03/18 05:32:16;;;;;;;24.17;14.63;;;11.90;99.90;;;;;;4994268;28;20065;-79
2024/03/18 05:34:44;;;;;;;21.70;14.13;;;12.00;99.90;;;;;;4993432;28;20057;-79
2024/03/18 05:37:10;;;;;;;19.05;13.45;;;11.90;99.90;;;;;;4994365;28;20478;-80
2024/03/18 05:39:39;;;;;;;20.15;12.98;;;11.90;99.90;;;;;;4994506;28;20037;-79
2024/03/18 05:42:06;;;;;;;18.58;11.40;;;11.90;99.90;;;;;;4994268;28;20036;-80
2024/03/18 05:44:31;;;;;;;21.83;13.45;;;11.90;99.90;;;;;;4993174;28;20026;-79
2024/03/18 05:46:58;;;;;;;20.75;13.57;;;11.90;99.90;;;;;;4994411;28;20027;-79
2024/03/18 05:49:23;;;;;;;22.27;13.60;;;11.90;99.90;;;;;;4993646;28;20023;-79
2024/03/18 05:51:49;;;;;;;21.67;13.18;;;11.90;99.90;;;;;;5008819;28;20486;-80
2024/03/18 05:54:15;;;;;;;20.30;13.55;;;11.90;99.90;;;;;;4994337;28;20033;-80
2024/03/18 05:56:43;;;;;;;19.58;13.32;;;11.90;99.90;;;;;;4995302;28;20033;-79
2024/03/18 05:59:12;;;;;;;19.60;12.27;;;11.80;99.90;;;;;;4993957;28;20564;-79
2024/03/18 06:01:38;;;;;;;20.40;13.05;;;11.90;99.90;;;;;;4993590;28;20026;-79
2024/03/18 06:04:04;;;;;;;22.05;14.45;;;11.90;99.90;;;;;;5010399;28;20044;-79
2024/03/18 06:06:30;;;;;;;20.25;13.13;;;11.90;99.90;;;;;;5014729;28;20484;-80
2024/03/18 06:08:57;;;;;;;27.35;14.85;;;11.90;99.90;;;;;;5013776;28;20026;-79
2024/03/18 06:11:22;;;;;;;20.60;14.48;;;11.90;99.90;;;;;;5013952;28;20080;-78
2024/03/18 06:13:48;;;;;;;22.67;14.45;;;11.90;99.90;;;;;;5012638;28;20408;-79
2024/03/18 06:16:14;;;;;;;23.58;15.73;;;11.90;99.90;;;;;;5014828;28;20045;-79
2024/03/18 06:18:42;;;;;;;21.35;14.50;;;11.90;99.90;;;;;;5018503;28;20026;-79
2024/03/18 06:21:16;;;;;;;19.92;13.45;;;11.90;99.90;;;;;;5030189;28;20021;-79
2024/03/18 06:23:51;;;;;;;20.77;13.30;;;12.00;99.90;;;;;;5047998;28;20141;-79
2024/03/18 06:26:17;;;;;;;20.40;13.90;;;12.00;99.90;;;;;;5033239;28;20400;-80
2024/03/18 06:28:43;;;;;;;21.58;14.02;;;12.00;99.90;;;;;;5029854;28;20163;-79
2024/03/18 06:31:10;;;;;;;23.88;14.10;;;12.00;99.90;;;;;;5025655;28;20521;-79
2024/03/18 06:33:36;;;;;;;22.98;15.48;;;12.00;99.90;;;;;;5031365;28;20013;-80
2024/03/18 06:36:11;;;;;;;23.95;14.30;;;12.10;99.90;;;;;;5020707;28;20494;-79
2024/03/18 06:38:41;;;;;;;21.75;14.05;;;12.10;99.90;;;;;;5021480;28;20026;-80
2024/03/18 06:41:09;;;;;;;20.98;13.38;;;12.10;99.90;;;;;;5019842;28;20049;-80
2024/03/18 06:43:35;;;;;;;21.63;13.63;;;12.10;99.90;;;;;;5019033;28;20116;-79
2024/03/18 06:46:01;;;;;;;22.65;13.27;;;12.10;99.90;;;;;;5013797;28;20034;-79
2024/03/18 06:48:27;;;;;;;23.30;13.73;;;12.10;99.90;;;;;;5016186;28;20035;-79
2024/03/18 06:50:52;;;;;;;22.15;13.75;;;12.10;99.90;;;;;;5016324;28;20492;-79
2024/03/18 06:53:19;;;;;;;19.63;13.93;;;12.20;99.90;;;;;;5006200;28;20036;-80
2024/03/18 06:55:44;;;;;;;21.35;13.88;;;12.20;99.90;;;;;;5016646;28;20477;-79
2024/03/18 06:58:11;;;;;;;22.48;14.82;;;12.20;99.90;;;;;;5012323;28;20034;-79
2024/03/18 07:00:38;;;;;;;18.10;12.18;;;12.20;99.90;;;;;;5014898;28;20529;-79
2024/03/18 07:03:04;;;;;;;23.60;15.13;;;12.30;99.90;;;;;;5016805;28;20473;-79
2024/03/18 07:05:30;;;;;;;21.77;13.95;;;12.30;99.90;;;;;;5018340;28;20080;-79
2024/03/18 07:07:56;;;;;;;24.65;15.27;;;12.30;99.90;;;;;;5016834;28;20064;-79
2024/03/18 07:10:21;;;;;;;21.90;13.63;;;12.30;99.90;;;;;;5016798;28;20022;-80
2024/03/18 07:12:47;;;;;;;21.52;13.98;;;12.30;99.90;;;;;;5017416;28;20477;-79
2024/03/18 07:15:16;;;;;;;22.35;14.60;;;12.20;99.90;;;;;;5017421;28;20029;-80
2024/03/18 07:17:43;;;;;;;26.48;15.63;;;12.20;99.90;;;;;;5030091;28;20068;-81
2024/03/18 07:20:10;;;;;;;21.80;14.98;;;12.20;99.90;;;;;;5032514;28;20021;-80
2024/03/18 07:22:38;;;;;;;23.00;13.98;;;12.30;99.90;;;;;;5010976;28;20022;-81
2024/03/18 07:25:04;;;;;;;22.23;15.43;;;12.30;99.90;;;;;;4998559;28;20042;-80
2024/03/18 07:27:31;;;;;;;23.42;15.10;;;12.20;99.90;;;;;;4997341;28;20057;-80
2024/03/18 07:29:57;;;;;;;26.23;15.10;;;12.30;99.90;;;;;;4997309;28;20035;-81
2024/03/18 07:32:24;;;;;;;21.73;14.55;;;12.30;99.90;;;;;;4996848;28;20124;-80
2024/03/18 07:34:51;;;;;;;23.52;15.05;;;12.30;99.90;;;;;;4996893;28;20417;-82
2024/03/18 07:37:17;;;;;;;24.40;14.48;;;12.30;99.90;;;;;;4996783;28;20031;-80
2024/03/18 07:39:43;;;;;;;26.05;15.02;;;12.30;99.90;;;;;;4997146;28;20026;-80
2024/03/18 07:42:11;;;;;;;24.08;14.77;;;12.40;99.90;;;;;;4997400;28;20037;-81
2024/03/18 07:44:37;;;;;;;20.35;14.45;;;12.40;99.90;;;;;;5012040;28;20030;-81
2024/03/18 07:47:03;;;;;;;23.25;15.25;;;12.40;99.90;;;;;;4997230;28;20030;-80
2024/03/18 07:49:29;;;;;;;25.90;15.35;;;12.40;99.90;;;;;;5011590;28;20367;-81
2024/03/18 07:51:54;;;;;;;21.17;14.35;;;12.50;99.90;;;;;;4997178;28;20450;-81
2024/03/18 07:54:20;;;;;;;24.80;15.73;;;12.50;99.90;;;;;;4995546;28;20030;-81
2024/03/18 07:56:46;;;;;;;24.02;15.13;;;12.60;99.90;;;;;;4996654;28;20097;-81
2024/03/18 07:59:11;;;;;;;23.15;14.90;;;12.60;99.90;;;;;;4995916;28;20041;-81
2024/03/18 08:01:37;;;;;;;22.58;13.90;;;12.70;99.90;;;;;;4995063;28;20042;-80
2024/03/18 08:04:03;;;;;;;21.52;14.02;;;12.70;99.90;;;;;;5011552;28;20019;-81
2024/03/18 08:06:28;;;;;;;21.17;14.35;;;12.80;99.90;;;;;;4996302;28;20061;-80
2024/03/18 08:08:54;;;;;;;24.52;14.98;;;12.80;99.90;;;;;;4995904;28;20026;-81
2024/03/18 08:11:20;;;;;;;26.00;14.43;;;12.90;99.90;;;;;;4994624;28;20017;-81
2024/03/18 08:13:45;;;;;;;24.33;15.15;;;12.90;99.90;;;;;;4994921;28;20027;-81
2024/03/18 08:16:11;;;;;;;24.10;15.50;;;13.00;99.90;;;;;;4996079;28;20011;-81
2024/03/18 08:18:37;;;;;;;27.08;16.20;;;13.10;99.90;;;;;;4994619;28;20030;-80
2024/03/18 08:21:03;;;;;;;24.60;15.63;;;13.10;99.90;;;;;;5011179;28;20377;-81
2024/03/18 08:23:29;;;;;;;24.88;14.60;;;13.20;99.90;;;;;;4995703;28;20054;-80
2024/03/18 08:25:55;;;;;;;23.58;16.65;;;13.20;99.90;;;;;;4996439;28;20093;-87
2024/03/18 08:28:21;;;;;;;23.27;16.63;;;13.30;99.90;;;;;;4997010;28;20478;-86
2024/03/18 08:30:46;;;;;;;26.55;16.40;;;13.30;99.90;;;;;;5010934;28;20049;-87
2024/03/18 08:33:12;;;;;;;21.73;15.63;;;13.30;99.90;;;;;;4995917;28;20033;-84
2024/03/18 08:35:38;;;;;;;22.13;14.45;;;13.30;99.90;;;;;;4996843;28;20031;-85
2024/03/18 08:38:04;;;;;;;21.42;15.05;;;13.30;99.90;;;;;;5010994;28;20018;-87
2024/03/18 08:40:30;;;;;;;23.33;15.52;;;13.40;99.90;;;;;;5011062;28;20022;-87
2024/03/18 08:42:55;;;;;;;23.13;16.13;;;13.30;99.90;;;;;;4994835;28;20596;-87
2024/03/18 08:45:21;;;;;;;22.85;14.10;;;13.30;99.90;;;;;;4994495;28;20026;-86
2024/03/18 08:47:47;;;;;;;25.65;15.30;;;13.30;99.90;;;;;;4994662;28;20489;-86
2024/03/18 08:50:12;;;;;;;28.77;16.38;;;13.20;99.90;;;;;;4996085;28;20034;-83
2024/03/18 08:52:39;;;;;;;28.83;17.95;;;13.20;99.90;;;;;;5010726;28;20027;-86
2024/03/18 08:55:05;;;;;;;32.22;18.65;;;13.10;99.90;;;;;;4995656;28;20029;-87
2024/03/18 08:57:31;;;;;;;31.60;19.08;;;13.00;99.90;;;;;;4995582;28;20022;-82
2024/03/18 08:59:57;;;;;;;29.13;18.52;;;12.90;99.90;;;;;;4995557;28;20497;-84
2024/03/18 09:02:23;;;;;;;29.23;19.45;;;12.90;99.90;;;;;;4996366;28;20033;-86
2024/03/18 09:04:50;;;;;;;25.52;16.85;;;12.70;99.90;;;;;;5020618;28;20034;-86
2024/03/18 09:07:15;;;;;;;26.35;16.52;;;12.70;99.90;;;;;;4996998;28;20034;-84
2024/03/18 09:09:41;;;;;;;31.33;16.33;;;12.70;99.90;;;;;;4994362;28;20030;-86
2024/03/18 09:12:07;;;;;;;24.75;15.35;;;12.60;99.90;;;;;;4995247;28;20034;-84
2024/03/18 09:14:33;;;;;;;26.95;16.02;;;12.60;99.90;;;;;;5010213;28;20027;-83
2024/03/18 09:17:01;;;;;;;24.95;15.35;;;12.60;99.90;;;;;;4994818;28;20489;-83
2024/03/18 09:19:30;;;;;;;26.60;17.10;;;12.60;99.90;;;;;;4995411;28;20073;-86
2024/03/18 09:21:56;;;;;;;31.83;17.67;;;12.50;99.90;;;;;;4995309;28;20470;-84
2024/03/18 09:24:22;;;;;;;23.58;15.68;;;12.50;99.90;;;;;;4994712;28;20042;-86
2024/03/18 09:26:48;;;;;;;26.42;15.43;;;12.50;99.90;;;;;;5010093;28;20026;-83
2024/03/18 09:29:13;;;;;;;26.85;16.08;;;12.50;99.90;;;;;;4994841;28;20026;-88
2024/03/18 09:31:39;;;;;;;24.23;14.02;;;12.60;99.90;;;;;;4993795;28;20026;-88
2024/03/18 09:34:09;;;;;;;21.00;13.43;;;12.60;99.90;;;;;;5010058;28;20030;-85
2024/03/18 09:36:35;;;;;;;22.88;14.27;;;12.60;99.90;;;;;;4994350;28;20025;-87
2024/03/18 09:39:01;;;;;;;23.55;12.18;;;12.70;99.90;;;;;;4995110;28;20401;-88
2024/03/18 09:41:27;;;;;;;22.75;13.75;;;12.80;99.90;;;;;;4994825;28;20022;-87
2024/03/18 09:43:52;;;;;;;21.65;14.20;;;12.80;99.90;;;;;;4994675;28;20030;-87
2024/03/18 09:46:21;;;;;;;24.20;13.68;;;12.90;99.90;;;;;;4994096;28;20052;-88
2024/03/18 09:48:47;;;;;;;24.63;14.38;;;12.80;99.90;;;;;;4994583;28;20034;-87
2024/03/18 09:51:17;;;;;;;19.95;12.57;;;12.90;99.90;;;;;;4994900;28;20041;-87
2024/03/18 09:53:46;;;;;;;23.27;12.95;;;12.90;99.90;;;;;;5009983;28;20026;-88
2024/03/18 09:56:15;;;;;;;25.23;13.27;;;13.00;99.90;;;;;;4994388;28;20462;-87
2024/03/18 09:58:42;;;;;;;27.75;13.57;;;13.10;99.90;;;;;;4993424;28;20045;-87
2024/03/18 10:01:11;;;;;;;22.27;14.48;;;13.30;99.90;;;;;;4993849;28;20385;-86
2024/03/18 10:03:42;;;;;;;25.63;13.77;;;13.40;99.90;;;;;;4994342;28;20018;-88
2024/03/18 10:06:08;;;;;;;20.88;13.40;;;13.50;99.90;;;;;;4993628;28;20090;-88
2024/03/18 10:08:36;;;;;;;23.55;13.93;;;13.60;99.90;;;;;;4993989;28;20435;-86
2024/03/18 10:11:01;;;;;;;23.20;14.50;;;13.70;99.90;;;;;;4993412;28;20022;-86
2024/03/18 10:13:27;;;;;;;22.05;13.57;;;13.80;99.90;;;;;;5009134;28;20052;-88
2024/03/18 10:15:53;;;;;;;21.25;13.10;;;13.80;99.90;;;;;;4992733;28;20022;-84
2024/03/18 10:18:19;;;;;;;22.63;13.90;;;13.90;99.90;;;;;;4995272;28;20034;-88
2024/03/18 10:20:44;;;;;;;20.70;13.15;;;13.90;99.90;;;;;;4995016;28;20096;-88
2024/03/18 10:23:14;;;;;;;22.05;12.35;;;14.00;99.90;;;;;;5009618;28;20046;-88
2024/03/18 10:25:40;;;;;;;19.83;11.63;;;14.40;99.90;;;;;;5009817;28;20384;-86
2024/03/18 10:28:07;;;;;;;19.88;11.25;;;14.90;99.90;;;;;;4994963;28;20026;-88
2024/03/18 10:30:34;;;;;;;17.92;11.45;;;15.20;99.90;;;;;;4994693;28;20105;-88
2024/03/18 10:33:04;;;;;;;15.15;9.23;;;15.40;99.90;;;;;;4993708;28;20125;-87
2024/03/18 10:35:33;;;;;;;15.95;9.48;;;15.40;99.90;;;;;;4993735;28;20168;-86
2024/03/18 10:38:07;;;;;;;14.30;8.60;;;15.50;99.90;;;;;;4993518;28;20474;-87
2024/03/18 10:40:38;;;;;;;16.42;9.23;;;15.60;99.90;;;;;;5004620;28;20014;-87
2024/03/18 10:43:12;;;;;;;13.60;8.48;;;15.50;99.90;;;;;;4993781;28;20485;-87
2024/03/18 10:45:46;;;;;;;15.82;10.27;;;15.40;99.90;;;;;;5010094;28;20023;-87
2024/03/18 10:48:16;;;;;;;14.55;9.48;;;15.30;99.90;;;;;;4994074;28;20034;-85
2024/03/18 10:50:44;;;;;;;13.13;8.65;;;15.20;99.90;;;;;;5008798;28;20041;-85
2024/03/18 10:53:21;;;;;;;14.25;8.60;;;15.00;99.90;;;;;;4994337;28;20026;-86
2024/03/18 10:55:49;;;;;;;15.90;9.80;;;15.00;99.90;;;;;;4994821;28;20049;-86
2024/03/18 10:58:15;;;;;;;17.42;9.77;;;14.80;99.90;;;;;;4994246;28;20026;-85
2024/03/18 11:00:41;;;;;;;15.80;10.27;;;14.60;99.90;;;;;;4997547;28;20029;-86
2024/03/18 11:03:19;;;;;;;18.25;11.18;;;14.50;99.90;;;;;;4993680;28;20031;-86
2024/03/18 11:05:50;;;;;;;19.80;12.32;;;14.40;99.90;;;;;;4994017;28;20291;-86
2024/03/18 11:08:20;;;;;;;18.27;11.55;;;14.30;99.90;;;;;;4994217;28;20454;-85
2024/03/18 11:10:47;;;;;;;23.58;12.45;;;14.20;99.90;;;;;;4993595;28;20022;-86
2024/03/18 11:13:15;;;;;;;20.17;12.50;;;14.10;99.90;;;;;;4993434;28;20055;-86
2024/03/18 11:16:06;;;;;;;22.65;11.98;;;14.00;99.90;;;;;;4992657;28;20202;-85
2024/03/18 11:18:34;;;;;;;20.67;12.07;;;13.90;99.90;;;;;;5008698;28;20449;-87
2024/03/18 11:21:01;;;;;;;23.42;12.60;;;14.00;99.90;;;;;;4993352;28;20022;-84
2024/03/18 11:23:32;;;;;;;21.80;11.05;;;13.90;99.90;;;;;;4993277;28;20057;-86
2024/03/18 11:26:04;;;;;;;21.70;12.30;;;14.00;99.90;;;;;;4993635;28;20077;-86
2024/03/18 11:28:34;;;;;;;19.58;10.90;;;14.20;99.90;;;;;;4993964;28;20041;-87
2024/03/18 11:31:00;;;;;;;19.45;10.73;;;14.50;99.90;;;;;;4994100;28;20073;-87
2024/03/18 11:33:27;;;;;;;16.13;9.07;;;15.00;99.90;;;;;;4993525;28;20022;-85
2024/03/18 11:35:53;;;;;;;14.95;7.78;;;15.90;99.90;;;;;;4993768;28;20014;-86
2024/03/18 11:38:19;;;;;;;18.45;8.07;;;16.90;99.90;;;;;;5008290;28;20492;-86
2024/03/18 11:40:45;;;;;;;15.45;7.57;;;17.80;99.90;;;;;;5012670;28;20118;-84
2024/03/18 11:43:13;;;;;;;11.63;6.75;;;18.70;99.90;;;;;;5027594;28;20484;-86
2024/03/18 11:45:38;;;;;;;14.32;6.40;;;19.40;99.90;;;;;;5012953;28;20033;-88
2024/03/18 11:48:06;;;;;;;11.60;6.05;;;20.10;99.90;;;;;;5016578;28;20038;-87
2024/03/18 11:50:41;;;;;;;11.63;5.38;;;20.60;98.90;;;;;;5017348;28;20033;-88
2024/03/18 11:53:11;;;;;;;12.30;5.15;;;21.30;96.90;;;;;;5032023;28;20029;-89
2024/03/18 11:55:39;;;;;;;10.80;4.72;;;22.00;94.70;;;;;;5016212;28;20018;-81
2024/03/18 11:58:06;;;;;;;9.45;4.53;;;22.70;92.70;;;;;;5016127;28;20030;-82
2024/03/18 12:00:36;;;;;;;9.77;4.70;;;23.40;88.70;;;;;;5017038;28;20040;-86
2024/03/18 12:03:07;;;;;;;8.13;3.85;;;23.90;82.60;;;;;;5016054;28;20121;-88
2024/03/18 12:05:38;;;;;;;11.65;5.50;;;24.40;78.90;;;;;;5016162;28;20465;-84
2024/03/18 12:08:07;;;;;;;10.13;4.18;;;24.60;75.00;;;;;;5030896;28;20018;-83
2024/03/18 12:10:33;;;;;;;13.95;5.00;;;24.50;71.90;;;;;;5018994;28;20032;-86
2024/03/18 12:13:00;;;;;;;9.15;4.13;;;24.30;70.60;;;;;;5016790;28;20057;-86
2024/03/18 12:15:27;;;;;;;13.20;4.85;;;24.10;69.10;;;;;;5016410;28;20062;-87
2024/03/18 12:17:52;;;;;;;15.48;6.45;;;23.90;68.30;;;;;;5015895;28;20034;-83
2024/03/18 12:20:27;;;;;;;16.25;6.53;;;23.60;65.30;;;;;;5015716;28;20034;-85
2024/03/18 12:22:59;;;;;;;13.50;5.68;;;23.40;64.50;;;;;;5015773;28;20022;-85
2024/03/18 12:28:38;;;;;;;15.48;5.90;;;23.10;64.00;;;;;;5016240;28;20179;-86
2024/03/18 12:31:05;;;;;;;;;;;22.90;62.40;;;;;;5016080;28;20033;-87
2024/03/18 12:33:31;;;;;;;8.13;3.17;;;22.70;62.90;;;;;;5016198;28;20276;-87
2024/03/18 12:35:58;;;;;;;11.48;4.20;;;22.60;63.90;;;;;;5015603;28;20413;-87